createdAt,value
2018-03-29T00:00:28.719Z,0.00
2018-03-29T00:01:28.696Z,0.00
2018-03-29T00:02:28.693Z,0.00
2018-03-29T00:03:28.676Z,0.00
2018-03-29T00:04:28.664Z,0.00
2018-03-29T00:05:28.648Z,0.00
2018-03-29T00:06:28.641Z,0.00
2018-03-29T00:07:28.624Z,0.00
2018-03-29T00:08:28.622Z,0.00
2018-03-29T00:09:28.597Z,0.00
2018-03-29T00:10:28.586Z,0.00
2018-03-29T00:11:28.573Z,0.00
2018-03-29T00:12:28.564Z,0.00
2018-03-29T00:13:28.546Z,0.00
2018-03-29T00:14:28.533Z,0.00
2018-03-29T00:15:28.524Z,0.00
2018-03-29T00:16:28.511Z,0.00
2018-03-29T00:17:28.500Z,0.00
2018-03-29T00:18:28.484Z,0.00
2018-03-29T00:19:28.468Z,0.00
2018-03-29T00:20:28.460Z,0.00
2018-03-29T00:21:28.449Z,0.00
2018-03-29T00:22:28.430Z,0.00
2018-03-29T00:23:28.422Z,0.00
2018-03-29T00:24:28.411Z,0.00
2018-03-29T00:25:28.395Z,0.00
2018-03-29T00:26:28.386Z,0.00
2018-03-29T00:27:28.378Z,0.00
2018-03-29T00:28:28.354Z,0.00
2018-03-29T00:29:28.345Z,0.00
2018-03-29T00:30:28.351Z,0.00
2018-03-29T00:31:28.324Z,0.00
2018-03-29T00:32:28.308Z,0.00
2018-03-29T00:33:28.290Z,0.00
2018-03-29T00:34:28.286Z,0.00
2018-03-29T00:35:28.270Z,0.00
2018-03-29T00:36:28.258Z,0.00
2018-03-29T00:37:28.242Z,0.00
2018-03-29T00:38:28.230Z,0.00
2018-03-29T00:39:28.218Z,0.00
2018-03-29T00:40:28.205Z,0.00
2018-03-29T00:41:28.217Z,0.00
2018-03-29T00:42:28.183Z,0.00
2018-03-29T00:43:28.171Z,0.00
2018-03-29T00:44:28.163Z,0.00
2018-03-29T00:45:28.146Z,0.00
2018-03-29T00:46:28.134Z,0.00
2018-03-29T00:47:28.114Z,0.00
2018-03-29T00:48:28.108Z,0.00
2018-03-29T00:49:28.086Z,0.00
2018-03-29T00:50:28.077Z,0.00
2018-03-29T00:51:28.064Z,0.00
2018-03-29T00:52:28.058Z,0.00
2018-03-29T00:53:28.038Z,0.00
2018-03-29T00:54:28.032Z,0.00
2018-03-29T00:55:28.018Z,0.00
2018-03-29T00:56:27.997Z,0.00
2018-03-29T00:57:27.995Z,0.00
2018-03-29T00:58:27.977Z,0.00
2018-03-29T00:59:27.963Z,0.00
2018-03-29T01:00:27.949Z,0.00
2018-03-29T01:01:27.939Z,0.00
2018-03-29T01:02:27.930Z,0.00
2018-03-29T01:03:27.910Z,0.00
2018-03-29T01:04:27.905Z,0.00
2018-03-29T01:05:27.886Z,0.00
2018-03-29T01:06:27.874Z,0.00
2018-03-29T01:07:27.865Z,0.00
2018-03-29T01:08:27.849Z,0.00
2018-03-29T01:09:27.839Z,0.00
2018-03-29T01:10:27.829Z,0.00
2018-03-29T01:11:27.813Z,0.00
2018-03-29T01:12:27.799Z,0.00
2018-03-29T01:13:27.782Z,0.00
2018-03-29T01:14:27.770Z,0.00
2018-03-29T01:15:27.760Z,0.00
2018-03-29T01:16:27.750Z,0.00
2018-03-29T01:17:27.736Z,0.00
2018-03-29T01:18:27.717Z,0.00
2018-03-29T01:19:27.706Z,0.00
2018-03-29T01:20:27.714Z,0.00
2018-03-29T01:21:27.682Z,0.00
2018-03-29T01:22:27.674Z,0.00
2018-03-29T01:23:27.657Z,0.00
2018-03-29T01:24:27.647Z,0.00
2018-03-29T01:25:27.633Z,0.00
2018-03-29T01:26:27.619Z,0.00
2018-03-29T01:27:27.605Z,0.00
2018-03-29T01:28:27.594Z,0.00
2018-03-29T01:29:27.584Z,0.00
2018-03-29T01:30:27.567Z,0.00
2018-03-29T01:31:27.558Z,0.00
2018-03-29T01:32:27.545Z,0.00
2018-03-29T01:33:27.531Z,0.00
2018-03-29T01:34:27.517Z,0.00
2018-03-29T01:35:27.505Z,0.00
2018-03-29T01:36:27.492Z,0.00
2018-03-29T01:37:27.482Z,0.00
2018-03-29T01:38:27.468Z,0.00
2018-03-29T01:39:27.450Z,0.00
2018-03-29T01:40:27.438Z,0.00
2018-03-29T01:41:27.424Z,0.00
2018-03-29T01:42:27.414Z,0.00
2018-03-29T01:43:27.400Z,0.00
2018-03-29T01:44:27.390Z,0.00
2018-03-29T01:45:27.373Z,0.00
2018-03-29T01:46:27.367Z,0.00
2018-03-29T01:47:27.349Z,0.00
2018-03-29T01:48:27.336Z,0.00
2018-03-29T01:49:27.321Z,0.00
2018-03-29T01:50:27.311Z,0.00
2018-03-29T01:51:27.295Z,0.00
2018-03-29T01:52:27.284Z,0.00
2018-03-29T01:53:27.277Z,0.00
2018-03-29T01:54:27.261Z,0.00
2018-03-29T01:55:27.246Z,0.00
2018-03-29T01:56:27.231Z,0.00
2018-03-29T01:57:27.222Z,0.00
2018-03-29T01:58:27.206Z,0.00
2018-03-29T01:59:27.197Z,0.00
2018-03-29T02:00:27.185Z,0.00
2018-03-29T02:01:27.177Z,0.00
2018-03-29T02:02:27.156Z,0.00
2018-03-29T02:03:27.145Z,0.00
2018-03-29T02:04:27.142Z,0.00
2018-03-29T02:05:27.118Z,0.00
2018-03-29T02:06:27.104Z,0.00
2018-03-29T02:07:27.088Z,0.00
2018-03-29T02:08:27.079Z,0.00
2018-03-29T02:09:27.069Z,0.00
2018-03-29T02:10:27.059Z,0.00
2018-03-29T02:11:27.043Z,0.00
2018-03-29T02:12:27.027Z,0.00
2018-03-29T02:13:27.013Z,0.00
2018-03-29T02:14:27.003Z,0.00
2018-03-29T02:15:26.991Z,0.00
2018-03-29T02:16:26.978Z,0.00
2018-03-29T02:17:26.963Z,0.00
2018-03-29T02:18:26.952Z,0.00
2018-03-29T02:19:26.944Z,0.00
2018-03-29T02:20:26.926Z,0.00
2018-03-29T02:21:26.910Z,0.00
2018-03-29T02:22:26.904Z,0.00
2018-03-29T02:23:26.888Z,0.00
2018-03-29T02:24:26.879Z,0.00
2018-03-29T02:25:26.855Z,0.00
2018-03-29T02:26:26.845Z,0.00
2018-03-29T02:27:26.835Z,0.00
2018-03-29T02:28:26.822Z,0.00
2018-03-29T02:29:26.811Z,0.00
2018-03-29T02:30:26.793Z,0.00
2018-03-29T02:31:26.783Z,0.00
2018-03-29T02:32:26.771Z,0.00
2018-03-29T02:33:26.758Z,0.00
2018-03-29T02:34:26.746Z,0.00
2018-03-29T02:35:26.733Z,0.00
2018-03-29T02:36:26.722Z,0.00
2018-03-29T02:37:26.715Z,0.00
2018-03-29T02:38:26.689Z,0.00
2018-03-29T02:39:26.681Z,0.00
2018-03-29T02:40:26.666Z,0.00
2018-03-29T02:41:26.654Z,0.00
2018-03-29T02:42:26.644Z,0.00
2018-03-29T02:43:26.629Z,0.00
2018-03-29T02:44:26.612Z,0.00
2018-03-29T02:45:26.599Z,0.00
2018-03-29T02:46:26.589Z,0.00
2018-03-29T02:47:26.579Z,0.00
2018-03-29T02:48:26.562Z,0.00
2018-03-29T02:49:26.565Z,0.00
2018-03-29T02:50:26.536Z,0.00
2018-03-29T02:51:26.524Z,0.00
2018-03-29T02:52:26.513Z,0.00
2018-03-29T02:53:26.503Z,0.00
2018-03-29T02:54:26.484Z,0.00
2018-03-29T02:55:26.466Z,0.00
2018-03-29T02:56:26.460Z,0.00
2018-03-29T02:57:26.455Z,0.00
2018-03-29T02:58:26.431Z,0.00
2018-03-29T02:59:26.424Z,0.00
2018-03-29T03:00:26.409Z,0.00
2018-03-29T03:01:26.400Z,0.00
2018-03-29T03:02:26.384Z,0.00
2018-03-29T03:03:26.367Z,0.00
2018-03-29T03:04:26.355Z,0.00
2018-03-29T03:05:26.337Z,0.00
2018-03-29T03:06:26.329Z,0.00
2018-03-29T03:07:26.313Z,0.00
2018-03-29T03:08:26.301Z,0.00
2018-03-29T03:09:26.302Z,0.00
2018-03-29T03:10:26.279Z,0.00
2018-03-29T03:11:26.263Z,0.00
2018-03-29T03:12:26.246Z,0.00
2018-03-29T03:13:26.235Z,0.00
2018-03-29T03:14:26.224Z,0.00
2018-03-29T03:15:26.206Z,0.00
2018-03-29T03:16:26.195Z,0.00
2018-03-29T03:17:26.187Z,0.00
2018-03-29T03:18:26.171Z,0.00
2018-03-29T03:19:26.161Z,0.00
2018-03-29T03:20:26.144Z,0.00
2018-03-29T03:21:26.128Z,0.00
2018-03-29T03:22:26.117Z,0.00
2018-03-29T03:23:26.104Z,0.00
2018-03-29T03:24:26.090Z,0.00
2018-03-29T03:25:26.074Z,0.00
2018-03-29T03:26:26.066Z,0.00
2018-03-29T03:27:26.056Z,0.00
2018-03-29T03:28:26.035Z,0.00
2018-03-29T03:29:26.030Z,0.00
2018-03-29T03:30:26.019Z,0.00
2018-03-29T03:31:26.002Z,0.00
2018-03-29T03:32:25.985Z,0.00
2018-03-29T03:33:25.971Z,0.00
2018-03-29T03:34:25.962Z,0.00
2018-03-29T03:35:25.953Z,0.00
2018-03-29T03:36:25.932Z,0.00
2018-03-29T03:37:25.920Z,0.00
2018-03-29T03:38:25.904Z,0.00
2018-03-29T03:39:25.900Z,0.00
2018-03-29T03:40:25.879Z,0.00
2018-03-29T03:41:25.861Z,0.00
2018-03-29T03:42:25.853Z,0.00
2018-03-29T03:43:25.845Z,0.00
2018-03-29T03:44:25.826Z,0.00
2018-03-29T03:45:25.816Z,0.00
2018-03-29T03:46:25.806Z,0.00
2018-03-29T03:47:25.788Z,0.00
2018-03-29T03:48:25.772Z,0.00
2018-03-29T03:49:25.769Z,0.00
2018-03-29T03:50:25.744Z,0.00
2018-03-29T03:51:25.736Z,0.00
2018-03-29T03:52:25.730Z,0.00
2018-03-29T03:53:25.707Z,0.00
2018-03-29T03:54:25.695Z,0.00
2018-03-29T03:55:25.683Z,0.00
2018-03-29T03:56:25.669Z,0.00
2018-03-29T03:57:25.655Z,0.00
2018-03-29T03:58:25.645Z,0.00
2018-03-29T03:59:25.634Z,0.00
2018-03-29T04:00:25.620Z,0.00
2018-03-29T04:01:25.605Z,0.00
2018-03-29T04:02:25.586Z,0.00
2018-03-29T04:03:25.578Z,0.00
2018-03-29T04:04:25.571Z,0.00
2018-03-29T04:05:25.549Z,0.00
2018-03-29T04:06:25.538Z,0.00
2018-03-29T04:07:25.522Z,0.00
2018-03-29T04:08:25.513Z,0.00
2018-03-29T04:09:25.495Z,0.00
2018-03-29T04:10:25.483Z,0.00
2018-03-29T04:11:25.469Z,0.00
2018-03-29T04:12:25.459Z,0.00
2018-03-29T04:13:25.442Z,0.00
2018-03-29T04:14:25.459Z,0.00
2018-03-29T04:15:25.414Z,0.00
2018-03-29T04:16:25.401Z,0.00
2018-03-29T04:17:25.391Z,0.00
2018-03-29T04:18:25.377Z,0.00
2018-03-29T04:19:25.359Z,0.00
2018-03-29T04:20:25.355Z,0.00
2018-03-29T04:21:25.333Z,0.00
2018-03-29T04:22:25.324Z,0.00
2018-03-29T04:23:25.309Z,0.00
2018-03-29T04:24:25.296Z,0.00
2018-03-29T04:25:25.283Z,0.00
2018-03-29T04:26:25.273Z,0.00
2018-03-29T04:27:25.257Z,0.00
2018-03-29T04:28:25.242Z,0.00
2018-03-29T04:29:25.237Z,0.00
2018-03-29T04:30:25.216Z,0.00
2018-03-29T04:31:25.201Z,0.00
2018-03-29T04:32:25.188Z,0.00
2018-03-29T04:33:25.177Z,0.00
2018-03-29T04:34:25.164Z,0.00
2018-03-29T04:35:25.149Z,0.00
2018-03-29T04:36:25.138Z,0.00
2018-03-29T04:37:25.123Z,0.00
2018-03-29T04:38:25.111Z,0.00
2018-03-29T04:39:25.099Z,0.00
2018-03-29T04:40:25.081Z,0.00
2018-03-29T04:41:25.068Z,0.00
2018-03-29T04:42:25.054Z,0.00
2018-03-29T04:43:25.039Z,0.00
2018-03-29T04:44:25.037Z,0.00
2018-03-29T04:45:25.016Z,0.00
2018-03-29T04:46:25.005Z,0.00
2018-03-29T04:47:24.988Z,0.00
2018-03-29T04:48:24.978Z,0.00
2018-03-29T04:49:24.963Z,0.00
2018-03-29T04:50:24.942Z,0.00
2018-03-29T04:51:24.934Z,0.00
2018-03-29T04:52:24.927Z,0.00
2018-03-29T04:53:24.909Z,0.00
2018-03-29T04:54:24.894Z,0.00
2018-03-29T04:55:24.874Z,0.00
2018-03-29T04:56:24.865Z,0.00
2018-03-29T04:57:24.851Z,0.00
2018-03-29T04:58:24.836Z,4.00
2018-03-29T04:59:24.823Z,4.00
2018-03-29T05:00:24.813Z,4.00
2018-03-29T05:01:24.866Z,4.00
2018-03-29T05:02:24.785Z,0.00
2018-03-29T05:03:24.771Z,4.00
2018-03-29T05:04:24.761Z,4.00
2018-03-29T05:05:24.750Z,4.00
2018-03-29T05:06:24.733Z,8.00
2018-03-29T05:07:24.714Z,4.00
2018-03-29T05:08:24.702Z,8.00
2018-03-29T05:09:24.686Z,8.00
2018-03-29T05:10:24.677Z,8.00
2018-03-29T05:11:24.660Z,12.00
2018-03-29T05:12:24.647Z,8.00
2018-03-29T05:13:24.633Z,12.00
2018-03-29T05:14:24.626Z,12.00
2018-03-29T05:15:24.610Z,16.00
2018-03-29T05:16:24.592Z,16.00
2018-03-29T05:17:24.578Z,16.00
2018-03-29T05:18:24.564Z,20.00
2018-03-29T05:19:24.554Z,20.00
2018-03-29T05:20:24.541Z,20.00
2018-03-29T05:21:24.525Z,24.00
2018-03-29T05:22:24.517Z,20.00
2018-03-29T05:23:24.505Z,24.00
2018-03-29T05:24:24.487Z,28.00
2018-03-29T05:25:24.473Z,24.00
2018-03-29T05:26:24.463Z,28.00
2018-03-29T05:27:24.445Z,28.00
2018-03-29T05:28:24.439Z,28.00
2018-03-29T05:29:24.416Z,32.00
2018-03-29T05:30:24.405Z,28.00
2018-03-29T05:31:24.392Z,32.00
2018-03-29T05:32:24.380Z,32.00
2018-03-29T05:33:24.364Z,32.00
2018-03-29T05:34:24.349Z,36.00
2018-03-29T05:35:24.335Z,36.00
2018-03-29T05:36:24.326Z,36.00
2018-03-29T05:37:24.314Z,40.00
2018-03-29T05:38:24.300Z,36.00
2018-03-29T05:39:24.283Z,44.00
2018-03-29T05:40:24.270Z,44.00
2018-03-29T05:41:24.259Z,48.00
2018-03-29T05:42:24.244Z,48.00
2018-03-29T05:43:24.226Z,52.00
2018-03-29T05:44:24.220Z,52.00
2018-03-29T05:45:24.195Z,60.00
2018-03-29T05:46:24.178Z,64.00
2018-03-29T05:47:24.174Z,68.00
2018-03-29T05:48:24.159Z,68.00
2018-03-29T05:49:24.143Z,60.00
2018-03-29T05:50:24.131Z,48.00
2018-03-29T05:51:24.119Z,40.00
2018-03-29T05:52:24.121Z,36.00
2018-03-29T05:53:24.088Z,40.00
2018-03-29T05:54:24.080Z,44.00
2018-03-29T05:55:24.066Z,48.00
2018-03-29T05:56:24.049Z,48.00
2018-03-29T05:57:24.041Z,48.00
2018-03-29T05:58:24.025Z,44.00
2018-03-29T05:59:24.010Z,44.00
2018-03-29T06:00:23.995Z,44.00
2018-03-29T06:01:23.978Z,48.00
2018-03-29T06:02:23.965Z,48.00
2018-03-29T06:03:23.955Z,48.00
2018-03-29T06:04:23.939Z,48.00
2018-03-29T06:05:23.924Z,40.00
2018-03-29T06:06:23.910Z,32.00
2018-03-29T06:07:23.897Z,32.00
2018-03-29T06:08:23.878Z,36.00
2018-03-29T06:09:23.873Z,52.00
2018-03-29T06:10:23.853Z,60.00
2018-03-29T06:11:23.842Z,72.00
2018-03-29T06:12:23.828Z,72.00
2018-03-29T06:13:23.808Z,72.00
2018-03-29T06:14:23.800Z,68.00
2018-03-29T06:15:23.781Z,68.00
2018-03-29T06:16:23.769Z,80.00
2018-03-29T06:17:23.756Z,96.00
2018-03-29T06:18:23.741Z,120.00
2018-03-29T06:19:23.729Z,140.00
2018-03-29T06:20:23.712Z,152.00
2018-03-29T06:21:23.713Z,156.00
2018-03-29T06:22:23.687Z,172.00
2018-03-29T06:23:23.714Z,196.00
2018-03-29T06:24:23.661Z,220.00
2018-03-29T06:25:23.645Z,232.00
2018-03-29T06:26:23.635Z,224.00
2018-03-29T06:27:23.615Z,208.00
2018-03-29T06:28:23.602Z,200.00
2018-03-29T06:29:23.585Z,200.00
2018-03-29T06:30:23.581Z,208.00
2018-03-29T06:31:23.561Z,216.00
2018-03-29T06:32:23.548Z,236.00
2018-03-29T06:33:23.535Z,252.00
2018-03-29T06:34:23.516Z,284.00
2018-03-29T06:35:23.500Z,320.00
2018-03-29T06:36:23.494Z,356.00
2018-03-29T06:37:23.475Z,376.00
2018-03-29T06:38:23.465Z,384.00
2018-03-29T06:39:23.452Z,400.00
2018-03-29T06:40:23.438Z,436.00
2018-03-29T06:41:23.419Z,476.00
2018-03-29T06:42:23.402Z,508.00
2018-03-29T06:43:23.392Z,536.00
2018-03-29T06:44:23.383Z,544.00
2018-03-29T06:45:23.366Z,556.00
2018-03-29T06:46:23.370Z,552.00
2018-03-29T06:47:23.336Z,532.00
2018-03-29T06:48:23.322Z,524.00
2018-03-29T06:49:23.312Z,532.00
2018-03-29T06:50:23.296Z,544.00
2018-03-29T06:51:23.280Z,548.00
2018-03-29T06:52:23.267Z,520.00
2018-03-29T06:53:23.255Z,488.00
2018-03-29T06:54:23.241Z,460.00
2018-03-29T06:55:23.225Z,452.00
2018-03-29T06:56:23.224Z,456.00
2018-03-29T06:57:23.200Z,468.00
2018-03-29T06:58:23.188Z,480.00
2018-03-29T06:59:23.170Z,480.00
2018-03-29T07:00:23.159Z,480.00
2018-03-29T07:01:23.140Z,472.00
2018-03-29T07:02:23.130Z,472.00
2018-03-29T07:03:23.114Z,472.00
2018-03-29T07:04:23.101Z,476.00
2018-03-29T07:05:23.085Z,488.00
2018-03-29T07:06:23.069Z,508.00
2018-03-29T07:07:23.062Z,516.00
2018-03-29T07:08:23.049Z,520.00
2018-03-29T07:09:23.030Z,516.00
2018-03-29T07:10:23.020Z,504.00
2018-03-29T07:11:23.001Z,512.00
2018-03-29T07:12:22.988Z,532.00
2018-03-29T07:13:22.980Z,560.00
2018-03-29T07:14:22.964Z,596.00
2018-03-29T07:15:22.946Z,632.00
2018-03-29T07:16:22.934Z,660.00
2018-03-29T07:17:22.924Z,680.00
2018-03-29T07:18:22.906Z,696.00
2018-03-29T07:19:22.890Z,728.00
2018-03-29T07:20:22.877Z,760.00
2018-03-29T07:21:22.865Z,788.00
2018-03-29T07:22:22.849Z,816.00
2018-03-29T07:23:22.843Z,828.00
2018-03-29T07:24:22.824Z,844.00
2018-03-29T07:25:22.808Z,852.00
2018-03-29T07:26:22.796Z,856.00
2018-03-29T07:27:22.786Z,880.00
2018-03-29T07:28:22.769Z,932.00
2018-03-29T07:29:22.755Z,996.00
2018-03-29T07:30:22.741Z,1060.00
2018-03-29T07:31:22.725Z,1116.00
2018-03-29T07:32:22.713Z,1164.00
2018-03-29T07:33:22.698Z,1200.00
2018-03-29T07:34:22.683Z,1248.00
2018-03-29T07:35:22.671Z,1324.00
2018-03-29T07:36:22.663Z,1428.00
2018-03-29T07:37:22.646Z,1552.00
2018-03-29T07:38:22.628Z,1700.00
2018-03-29T07:39:22.618Z,1848.00
2018-03-29T07:40:22.609Z,1972.00
2018-03-29T07:41:22.588Z,2044.00
2018-03-29T07:42:22.570Z,2056.00
2018-03-29T07:43:22.562Z,2004.00
2018-03-29T07:44:22.547Z,1936.00
2018-03-29T07:45:22.533Z,1880.00
2018-03-29T07:46:22.524Z,1884.00
2018-03-29T07:47:22.501Z,1964.00
2018-03-29T07:48:22.493Z,2044.00
2018-03-29T07:49:22.477Z,2072.00
2018-03-29T07:50:22.465Z,2040.00
2018-03-29T07:51:22.459Z,1960.00
2018-03-29T07:52:22.442Z,1880.00
2018-03-29T07:53:22.426Z,1824.00
2018-03-29T07:54:22.412Z,1784.00
2018-03-29T07:55:22.401Z,1772.00
2018-03-29T07:56:22.387Z,1764.00
2018-03-29T07:57:22.371Z,1748.00
2018-03-29T07:58:22.353Z,1736.00
2018-03-29T07:59:22.339Z,1732.00
2018-03-29T08:00:22.353Z,1732.00
2018-03-29T08:01:22.316Z,1744.00
2018-03-29T08:02:22.304Z,1796.00
2018-03-29T08:03:22.291Z,1876.00
2018-03-29T08:04:22.274Z,1980.00
2018-03-29T08:05:22.268Z,2064.00
2018-03-29T08:06:22.250Z,2108.00
2018-03-29T08:07:22.236Z,2084.00
2018-03-29T08:08:22.226Z,1988.00
2018-03-29T08:09:22.210Z,1880.00
2018-03-29T08:10:22.191Z,1820.00
2018-03-29T08:11:22.187Z,1820.00
2018-03-29T08:12:22.178Z,1860.00
2018-03-29T08:13:22.157Z,1892.00
2018-03-29T08:14:22.143Z,1860.00
2018-03-29T08:15:22.133Z,1784.00
2018-03-29T08:16:22.119Z,1740.00
2018-03-29T08:17:22.105Z,1780.00
2018-03-29T08:18:22.094Z,1856.00
2018-03-29T08:19:22.078Z,1904.00
2018-03-29T08:20:22.065Z,1896.00
2018-03-29T08:21:22.050Z,1816.00
2018-03-29T08:22:22.038Z,1696.00
2018-03-29T08:23:22.024Z,1588.00
2018-03-29T08:24:22.014Z,1528.00
2018-03-29T08:25:22.000Z,1516.00
2018-03-29T08:26:21.992Z,1536.00
2018-03-29T08:27:21.984Z,1564.00
2018-03-29T08:28:21.959Z,1600.00
2018-03-29T08:29:21.956Z,1620.00
2018-03-29T08:30:21.933Z,1628.00
2018-03-29T08:31:21.920Z,1624.00
2018-03-29T08:32:21.908Z,1624.00
2018-03-29T08:33:21.894Z,1624.00
2018-03-29T08:34:21.882Z,1624.00
2018-03-29T08:35:21.860Z,1636.00
2018-03-29T08:36:21.852Z,1656.00
2018-03-29T08:37:21.840Z,1652.00
2018-03-29T08:38:21.829Z,1628.00
2018-03-29T08:39:21.813Z,1596.00
2018-03-29T08:40:21.797Z,1572.00
2018-03-29T08:41:21.789Z,1612.00
2018-03-29T08:42:21.774Z,1684.00
2018-03-29T08:43:21.761Z,1724.00
2018-03-29T08:44:21.751Z,1696.00
2018-03-29T08:45:21.729Z,1624.00
2018-03-29T08:46:21.725Z,1624.00
2018-03-29T08:47:21.707Z,1712.00
2018-03-29T08:48:21.700Z,1784.00
2018-03-29T08:49:21.683Z,1848.00
2018-03-29T08:50:21.671Z,1924.00
2018-03-29T08:51:21.658Z,2024.00
2018-03-29T08:52:21.642Z,2152.00
2018-03-29T08:53:21.632Z,2276.00
2018-03-29T08:54:21.621Z,2352.00
2018-03-29T08:55:21.604Z,2400.00
2018-03-29T08:56:21.586Z,2496.00
2018-03-29T08:57:21.577Z,2712.00
2018-03-29T08:58:21.564Z,3012.00
2018-03-29T08:59:21.549Z,3292.00
2018-03-29T09:00:21.538Z,3404.00
2018-03-29T09:01:21.524Z,3512.00
2018-03-29T09:02:21.508Z,3608.00
2018-03-29T09:03:21.498Z,3640.00
2018-03-29T09:04:21.483Z,3352.00
2018-03-29T09:05:21.470Z,2832.00
2018-03-29T09:06:21.457Z,2692.00
2018-03-29T09:07:21.444Z,2956.00
2018-03-29T09:08:21.432Z,3248.00
2018-03-29T09:09:21.423Z,3928.00
2018-03-29T09:10:21.408Z,4352.00
2018-03-29T09:11:21.398Z,3928.00
2018-03-29T09:12:21.375Z,3628.00
2018-03-29T09:13:21.365Z,3172.00
2018-03-29T09:14:21.354Z,2908.00
2018-03-29T09:15:21.340Z,3404.00
2018-03-29T09:16:21.326Z,3700.00
2018-03-29T09:17:21.315Z,3656.00
2018-03-29T09:18:21.306Z,3484.00
2018-03-29T09:19:21.290Z,3348.00
2018-03-29T09:20:21.277Z,3208.00
2018-03-29T09:21:21.267Z,3008.00
2018-03-29T09:22:21.255Z,2800.00
2018-03-29T09:23:21.243Z,2716.00
2018-03-29T09:24:21.224Z,2832.00
2018-03-29T09:25:21.217Z,2932.00
2018-03-29T09:26:21.203Z,2872.00
2018-03-29T09:27:21.189Z,2748.00
2018-03-29T09:28:21.180Z,2720.00
2018-03-29T09:29:21.160Z,2476.00
2018-03-29T09:30:21.149Z,2132.00
2018-03-29T09:31:21.138Z,2064.00
2018-03-29T09:32:21.131Z,2056.00
2018-03-29T09:33:21.108Z,2160.00
2018-03-29T09:34:21.102Z,2368.00
2018-03-29T09:35:21.085Z,2544.00
2018-03-29T09:36:21.076Z,2648.00
2018-03-29T09:37:21.060Z,2732.00
2018-03-29T09:38:21.048Z,2836.00
2018-03-29T09:39:21.036Z,2968.00
2018-03-29T09:40:21.026Z,3144.00
2018-03-29T09:41:21.009Z,3224.00
2018-03-29T09:42:20.997Z,3132.00
2018-03-29T09:43:20.983Z,3028.00
2018-03-29T09:44:20.972Z,2884.00
2018-03-29T09:45:20.961Z,2688.00
2018-03-29T09:46:20.948Z,2568.00
2018-03-29T09:47:20.935Z,2512.00
2018-03-29T09:48:20.923Z,2536.00
2018-03-29T09:49:20.912Z,2568.00
2018-03-29T09:50:20.899Z,2568.00
2018-03-29T09:51:20.885Z,2628.00
2018-03-29T09:52:20.872Z,2716.00
2018-03-29T09:53:20.855Z,2840.00
2018-03-29T09:54:20.847Z,3056.00
2018-03-29T09:55:20.831Z,3192.00
2018-03-29T09:56:20.821Z,3224.00
2018-03-29T09:57:20.805Z,3080.00
2018-03-29T09:58:20.792Z,2732.00
2018-03-29T09:59:20.780Z,2632.00
2018-03-29T10:00:20.769Z,2572.00
2018-03-29T10:01:20.756Z,2612.00
2018-03-29T10:02:20.743Z,2668.00
2018-03-29T10:03:20.726Z,2652.00
2018-03-29T10:04:20.718Z,2756.00
2018-03-29T10:05:20.700Z,2876.00
2018-03-29T10:06:20.690Z,2864.00
2018-03-29T10:07:20.677Z,2836.00
2018-03-29T10:08:20.664Z,2764.00
2018-03-29T10:09:20.657Z,2692.00
2018-03-29T10:10:20.640Z,2676.00
2018-03-29T10:11:20.627Z,2636.00
2018-03-29T10:12:20.618Z,2592.00
2018-03-29T10:13:20.605Z,2596.00
2018-03-29T10:14:20.590Z,2636.00
2018-03-29T10:15:20.576Z,2724.00
2018-03-29T10:16:20.564Z,2928.00
2018-03-29T10:17:20.560Z,3276.00
2018-03-29T10:18:20.536Z,3632.00
2018-03-29T10:19:20.527Z,3636.00
2018-03-29T10:20:20.515Z,3536.00
2018-03-29T10:21:20.504Z,3464.00
2018-03-29T10:22:20.488Z,3348.00
2018-03-29T10:23:20.482Z,3040.00
2018-03-29T10:24:20.464Z,2712.00
2018-03-29T10:25:20.454Z,2516.00
2018-03-29T10:26:20.442Z,2304.00
2018-03-29T10:27:20.428Z,2152.00
2018-03-29T10:28:20.410Z,2160.00
2018-03-29T10:29:20.406Z,2184.00
2018-03-29T10:30:20.391Z,2208.00
2018-03-29T10:31:20.378Z,2208.00
2018-03-29T10:32:20.365Z,2128.00
2018-03-29T10:33:20.353Z,1996.00
2018-03-29T10:34:20.336Z,1860.00
2018-03-29T10:35:20.328Z,1920.00
2018-03-29T10:36:20.313Z,1880.00
2018-03-29T10:37:20.304Z,1856.00
2018-03-29T10:38:20.285Z,1752.00
2018-03-29T10:39:20.279Z,1596.00
2018-03-29T10:40:20.265Z,1480.00
2018-03-29T10:41:20.254Z,1480.00
2018-03-29T10:42:20.238Z,1496.00
2018-03-29T10:43:20.225Z,1632.00
2018-03-29T10:44:20.217Z,1876.00
2018-03-29T10:45:20.202Z,2156.00
2018-03-29T10:46:20.187Z,2408.00
2018-03-29T10:47:20.175Z,2504.00
2018-03-29T10:48:20.164Z,2540.00
2018-03-29T10:49:20.155Z,2644.00
2018-03-29T10:50:20.140Z,2748.00
2018-03-29T10:51:20.131Z,2752.00
2018-03-29T10:52:20.116Z,2648.00
2018-03-29T10:53:20.101Z,2512.00
2018-03-29T10:54:20.082Z,2356.00
2018-03-29T10:55:20.078Z,2264.00
2018-03-29T10:56:20.066Z,2220.00
2018-03-29T10:57:20.046Z,2364.00
2018-03-29T10:58:20.038Z,2632.00
2018-03-29T10:59:20.024Z,3224.00
2018-03-29T11:00:20.014Z,4216.00
2018-03-29T11:01:19.998Z,4216.00
2018-03-29T11:02:19.990Z,3776.00
2018-03-29T11:03:19.980Z,3252.00
2018-03-29T11:04:19.968Z,3276.00
2018-03-29T11:05:19.955Z,3744.00
2018-03-29T11:06:19.943Z,4040.00
2018-03-29T11:07:19.927Z,4028.00
2018-03-29T11:08:19.917Z,3640.00
2018-03-29T11:09:19.904Z,3464.00
2018-03-29T11:10:19.894Z,4116.00
2018-03-29T11:11:19.884Z,4516.00
2018-03-29T11:12:19.869Z,4860.00
2018-03-29T11:13:19.855Z,5056.00
2018-03-29T11:14:19.841Z,5012.00
2018-03-29T11:15:19.827Z,4988.00
2018-03-29T11:16:19.819Z,5024.00
2018-03-29T11:17:19.805Z,4980.00
2018-03-29T11:18:19.790Z,5216.00
2018-03-29T11:19:19.779Z,4856.00
2018-03-29T11:20:19.779Z,4964.00
2018-03-29T11:21:19.761Z,4940.00
2018-03-29T11:22:19.753Z,5848.00
2018-03-29T11:23:19.736Z,7900.00
2018-03-29T11:24:19.727Z,8524.00
2018-03-29T11:25:19.715Z,6556.00
2018-03-29T11:26:19.703Z,5980.00
2018-03-29T11:27:19.698Z,5852.00
2018-03-29T11:28:19.681Z,6924.00
2018-03-29T11:29:19.663Z,8628.00
2018-03-29T11:30:19.655Z,8096.00
2018-03-29T11:31:19.643Z,7204.00
2018-03-29T11:32:19.632Z,6888.00
2018-03-29T11:33:19.620Z,7272.00
2018-03-29T11:34:19.607Z,6960.00
2018-03-29T11:35:19.600Z,6416.00
2018-03-29T11:36:19.586Z,6224.00
2018-03-29T11:37:19.578Z,5948.00
2018-03-29T11:38:19.568Z,6512.00
2018-03-29T11:39:19.558Z,7316.00
2018-03-29T11:40:19.548Z,5264.00
2018-03-29T11:41:19.530Z,4756.00
2018-03-29T11:42:19.527Z,4424.00
2018-03-29T11:43:19.514Z,4068.00
2018-03-29T11:44:19.503Z,3740.00
2018-03-29T11:45:19.493Z,3404.00
2018-03-29T11:46:20.053Z,3028.00
2018-03-29T11:47:19.465Z,2960.00
2018-03-29T11:48:19.461Z,3128.00
2018-03-29T11:49:19.452Z,3416.00
2018-03-29T11:50:19.438Z,3596.00
2018-03-29T11:51:19.425Z,3628.00
2018-03-29T11:52:19.423Z,3524.00
2018-03-29T11:53:19.403Z,3292.00
2018-03-29T11:54:19.394Z,3140.00
2018-03-29T11:55:19.386Z,2940.00
2018-03-29T11:56:19.376Z,2840.00
2018-03-29T11:57:19.364Z,2932.00
2018-03-29T11:58:19.351Z,3224.00
2018-03-29T11:59:19.342Z,3656.00
2018-03-29T12:00:19.333Z,4176.00
2018-03-29T12:01:19.319Z,4176.00
2018-03-29T12:02:19.309Z,4008.00
2018-03-29T12:03:19.315Z,3652.00
2018-03-29T12:04:19.292Z,3512.00
2018-03-29T12:05:19.277Z,3620.00
2018-03-29T12:06:19.269Z,3776.00
2018-03-29T12:07:19.255Z,3988.00
2018-03-29T12:08:19.244Z,4192.00
2018-03-29T12:09:19.231Z,4736.00
2018-03-29T12:10:19.225Z,4836.00
2018-03-29T12:11:19.214Z,4660.00
2018-03-29T12:12:19.203Z,4264.00
2018-03-29T12:13:19.188Z,4184.00
2018-03-29T12:14:19.185Z,4336.00
2018-03-29T12:15:19.163Z,4028.00
2018-03-29T12:16:19.162Z,3276.00
2018-03-29T12:17:19.148Z,3564.00
2018-03-29T12:18:19.139Z,3816.00
2018-03-29T12:19:19.127Z,3876.00
2018-03-29T12:20:19.115Z,3776.00
2018-03-29T12:21:19.100Z,3712.00
2018-03-29T12:22:19.098Z,3992.00
2018-03-29T12:23:19.085Z,3828.00
2018-03-29T12:24:19.071Z,3680.00
2018-03-29T12:25:19.057Z,3596.00
2018-03-29T12:26:19.051Z,3840.00
2018-03-29T12:27:19.037Z,4260.00
2018-03-29T12:28:19.026Z,4800.00
2018-03-29T12:29:19.014Z,5272.00
2018-03-29T12:30:19.002Z,4264.00
2018-03-29T12:31:18.995Z,4100.00
2018-03-29T12:32:18.993Z,4392.00
2018-03-29T12:33:18.971Z,6624.00
2018-03-29T12:34:18.956Z,5320.00
2018-03-29T12:35:18.944Z,5312.00
2018-03-29T12:36:18.938Z,5284.00
2018-03-29T12:37:18.926Z,5072.00
2018-03-29T12:38:18.915Z,5180.00
2018-03-29T12:39:18.904Z,4808.00
2018-03-29T12:40:18.886Z,4928.00